createdAt,value
2018-09-17T00:00:09.848Z,3.23
2018-09-17T00:02:38.074Z,4.00
2018-09-17T00:05:06.244Z,2.90
2018-09-17T00:07:34.418Z,3.07
2018-09-17T00:10:02.603Z,3.37
2018-09-17T00:12:30.764Z,3.63
2018-09-17T00:14:58.939Z,3.77
2018-09-17T00:17:27.147Z,3.93
2018-09-17T00:19:55.291Z,3.33
2018-09-17T00:22:23.478Z,2.73
2018-09-17T00:24:51.663Z,3.23
2018-09-17T00:27:19.830Z,3.70
2018-09-17T00:29:47.998Z,3.07
2018-09-17T00:32:16.166Z,3.50
2018-09-17T00:34:44.342Z,3.50
2018-09-17T00:37:12.506Z,3.47
2018-09-17T00:39:43.142Z,3.70
2018-09-17T00:42:11.361Z,3.30
2018-09-17T00:44:39.524Z,3.27
2018-09-17T00:47:07.702Z,2.93
2018-09-17T00:49:35.895Z,3.20
2018-09-17T00:52:04.092Z,3.30
2018-09-17T00:54:32.267Z,3.40
2018-09-17T00:57:00.422Z,2.70
2018-09-17T00:59:28.604Z,3.30
2018-09-17T01:01:56.815Z,3.33
2018-09-17T01:04:24.974Z,3.57
2018-09-17T01:06:53.167Z,3.00
2018-09-17T01:09:26.659Z,2.93
2018-09-17T01:11:54.837Z,2.93
2018-09-17T01:14:23.029Z,3.43
2018-09-17T01:16:51.232Z,3.77
2018-09-17T01:19:19.426Z,3.60
2018-09-17T01:21:47.608Z,3.70
2018-09-17T01:24:15.782Z,3.27
2018-09-17T01:26:44.047Z,3.50
2018-09-17T01:29:12.258Z,3.40
2018-09-17T01:31:40.492Z,2.97
2018-09-17T01:34:08.647Z,2.63
2018-09-17T01:36:36.845Z,3.00
2018-09-17T01:39:07.451Z,3.10
2018-09-17T01:41:35.627Z,3.37
2018-09-17T01:44:03.808Z,3.90
2018-09-17T01:46:32.016Z,2.77
2018-09-17T01:49:00.222Z,3.23
2018-09-17T01:51:28.387Z,3.50
2018-09-17T01:53:56.596Z,2.93
2018-09-17T01:56:24.742Z,2.73
2018-09-17T01:58:52.905Z,2.70
2018-09-17T02:01:21.088Z,3.20
2018-09-17T02:03:49.316Z,2.87
2018-09-17T02:06:17.498Z,3.13
2018-09-17T02:08:45.763Z,3.30
2018-09-17T02:11:13.918Z,3.10
2018-09-17T02:13:42.095Z,3.03
2018-09-17T02:16:10.267Z,3.60
2018-09-17T02:18:38.438Z,3.17
2018-09-17T02:21:06.814Z,3.17
2018-09-17T02:23:35.087Z,2.80
2018-09-17T02:26:03.264Z,3.20
2018-09-17T02:28:31.486Z,3.30
2018-09-17T02:30:59.656Z,3.37
2018-09-17T02:33:27.830Z,3.20
2018-09-17T02:35:56.020Z,3.13
2018-09-17T02:38:24.174Z,2.93
2018-09-17T02:40:52.444Z,2.90
2018-09-17T02:43:20.610Z,3.30
2018-09-17T02:45:48.771Z,3.07
2018-09-17T02:48:16.967Z,3.57
2018-09-17T02:50:45.131Z,3.63
2018-09-17T02:53:13.308Z,3.67
2018-09-17T02:55:41.487Z,3.13
2018-09-17T02:58:09.667Z,3.80
2018-09-17T03:00:37.834Z,3.70
2018-09-17T03:03:06.144Z,3.80
2018-09-17T03:05:34.299Z,3.70
2018-09-17T03:08:02.519Z,4.13
2018-09-17T03:10:30.704Z,3.90
2018-09-17T03:12:58.903Z,3.80
2018-09-17T03:15:38.390Z,3.93
2018-09-17T03:18:06.575Z,4.20
2018-09-17T03:20:34.720Z,5.27
2018-09-17T03:23:02.976Z,5.73
2018-09-17T03:25:31.175Z,5.80
2018-09-17T03:27:59.367Z,6.40
2018-09-17T03:30:27.537Z,6.53
2018-09-17T03:32:55.718Z,7.57
2018-09-17T03:35:23.938Z,7.43
2018-09-17T03:37:52.107Z,7.97
2018-09-17T03:40:20.266Z,7.23
2018-09-17T03:42:48.435Z,6.43
2018-09-17T03:45:16.632Z,7.80
2018-09-17T03:47:44.799Z,6.20
2018-09-17T03:50:12.970Z,6.63
2018-09-17T03:52:41.134Z,6.00
2018-09-17T03:55:09.303Z,6.70
2018-09-17T03:57:37.482Z,6.50
2018-09-17T04:00:05.747Z,7.33
2018-09-17T04:02:33.938Z,6.10
2018-09-17T04:05:02.199Z,6.20
2018-09-17T04:07:30.358Z,6.07
2018-09-17T04:09:58.554Z,6.27
2018-09-17T04:12:26.731Z,6.07
2018-09-17T04:14:54.887Z,5.37
2018-09-17T04:17:23.088Z,4.73
2018-09-17T04:19:51.302Z,4.03
2018-09-17T04:22:19.545Z,4.83
2018-09-17T04:24:47.741Z,4.87
2018-09-17T04:27:15.940Z,4.20
2018-09-17T04:29:44.110Z,4.00
2018-09-17T04:32:12.283Z,4.03
2018-09-17T04:34:40.479Z,4.00
2018-09-17T04:37:08.658Z,3.70
2018-09-17T04:39:36.918Z,3.63
2018-09-17T04:42:05.059Z,4.03
2018-09-17T04:44:33.235Z,4.10
2018-09-17T04:47:01.469Z,3.60
2018-09-17T04:49:29.749Z,4.20
2018-09-17T04:51:58.004Z,4.37
2018-09-17T04:54:26.151Z,3.80
2018-09-17T04:56:54.381Z,3.73
2018-09-17T04:59:22.538Z,4.03
2018-09-17T05:01:50.691Z,3.87
2018-09-17T05:04:18.834Z,3.73
2018-09-17T05:06:46.995Z,4.50
2018-09-17T05:09:15.166Z,3.97
2018-09-17T05:11:43.339Z,3.77
2018-09-17T05:14:11.499Z,3.77
2018-09-17T05:16:39.658Z,4.00
2018-09-17T05:19:07.810Z,4.37
2018-09-17T05:21:35.994Z,3.70
2018-09-17T05:24:04.202Z,4.57
2018-09-17T05:26:32.358Z,5.07
2018-09-17T05:29:00.533Z,4.83
2018-09-17T05:31:28.686Z,4.60
2018-09-17T05:33:56.922Z,4.80
2018-09-17T05:36:31.742Z,3.77
2018-09-17T05:38:59.919Z,4.83
2018-09-17T05:41:28.088Z,4.40
2018-09-17T05:43:56.803Z,3.53
2018-09-17T05:46:24.970Z,3.93
2018-09-17T05:48:53.207Z,4.10
2018-09-17T05:51:21.448Z,4.30
2018-09-17T05:53:49.652Z,4.77
2018-09-17T05:56:17.766Z,4.27
2018-09-17T05:58:45.946Z,4.20
2018-09-17T06:01:14.123Z,4.80
2018-09-17T06:03:42.266Z,4.10
2018-09-17T06:06:10.608Z,5.10
2018-09-17T06:08:38.891Z,5.20
2018-09-17T06:11:07.090Z,5.73
2018-09-17T06:13:35.235Z,4.83
2018-09-17T06:16:03.422Z,5.27
2018-09-17T06:18:31.578Z,5.57
2018-09-17T06:20:59.795Z,6.30
2018-09-17T06:23:28.102Z,4.70
2018-09-17T06:25:56.142Z,4.47
2018-09-17T06:28:24.310Z,4.73
2018-09-17T06:30:52.467Z,4.40
2018-09-17T06:33:20.659Z,5.33
2018-09-17T06:35:48.959Z,4.37
2018-09-17T06:38:17.164Z,4.30
2018-09-17T06:40:45.311Z,4.43
2018-09-17T06:43:13.475Z,4.30
2018-09-17T06:45:41.647Z,5.37
2018-09-17T06:48:09.837Z,4.77
2018-09-17T06:50:38.027Z,5.00
2018-09-17T06:53:06.217Z,5.23
2018-09-17T06:55:34.642Z,5.53
2018-09-17T06:58:02.933Z,6.10
2018-09-17T07:00:31.180Z,5.57
2018-09-17T07:02:59.338Z,5.53
2018-09-17T07:05:27.513Z,5.30
2018-09-17T07:07:55.670Z,7.00
2018-09-17T07:10:23.994Z,6.80
2018-09-17T07:12:52.162Z,7.77
2018-09-17T07:15:20.514Z,7.50
2018-09-17T07:17:48.699Z,7.83
2018-09-17T07:20:16.868Z,8.20
2018-09-17T07:22:45.047Z,7.60
2018-09-17T07:25:13.287Z,6.50
2018-09-17T07:27:41.395Z,6.50
2018-09-17T07:30:09.698Z,5.37
2018-09-17T07:32:37.900Z,6.00
2018-09-17T07:35:06.159Z,5.60
2018-09-17T07:37:34.346Z,5.17
2018-09-17T07:40:02.499Z,5.27
2018-09-17T07:42:30.679Z,5.33
2018-09-17T07:44:58.894Z,5.17
2018-09-17T07:47:27.055Z,5.70
2018-09-17T07:49:55.239Z,5.30
2018-09-17T07:52:23.444Z,5.60
2018-09-17T07:54:51.634Z,5.23
2018-09-17T07:57:19.820Z,5.53
2018-09-17T07:59:48.018Z,5.23
2018-09-17T08:02:16.205Z,4.90
2018-09-17T08:04:44.371Z,4.47
2018-09-17T08:07:12.553Z,4.33
2018-09-17T08:09:40.725Z,4.50
2018-09-17T08:12:08.925Z,4.87
2018-09-17T08:14:37.106Z,5.27
2018-09-17T08:17:05.369Z,5.83
2018-09-17T08:19:33.497Z,6.20
2018-09-17T08:22:01.701Z,6.20
2018-09-17T08:24:29.976Z,5.40
2018-09-17T08:26:58.175Z,5.50
2018-09-17T08:29:26.363Z,5.17
2018-09-17T08:31:54.599Z,5.00
2018-09-17T08:34:22.780Z,4.93
2018-09-17T08:36:50.947Z,4.20
2018-09-17T08:39:19.116Z,4.43
2018-09-17T08:41:47.262Z,5.07
2018-09-17T08:44:15.412Z,3.70
2018-09-17T08:46:43.595Z,4.43
2018-09-17T08:49:11.755Z,4.30
2018-09-17T08:51:39.932Z,4.10
2018-09-17T08:54:08.142Z,3.80
2018-09-17T08:56:41.835Z,3.43
2018-09-17T08:59:15.380Z,6.13
2018-09-17T09:02:51.751Z,4.13
2018-09-17T09:05:25.430Z,2.83
2018-09-17T09:07:54.790Z,3.07
2018-09-17T09:10:28.318Z,2.93
2018-09-17T09:13:02.100Z,3.13
2018-09-17T09:15:36.148Z,3.30
2018-09-17T09:18:05.331Z,3.10
2018-09-17T09:20:33.583Z,2.93
2018-09-17T09:23:01.793Z,2.67
2018-09-17T09:25:29.983Z,2.80
2018-09-17T09:27:58.139Z,3.20
2018-09-17T09:30:26.298Z,3.37
2018-09-17T09:32:54.507Z,2.90
2018-09-17T09:35:23.026Z,3.30
2018-09-17T09:37:51.507Z,3.00
2018-09-17T09:40:19.686Z,2.70
2018-09-17T09:42:47.834Z,2.47
2018-09-17T09:45:16.859Z,3.23
2018-09-17T09:47:45.727Z,3.07
2018-09-17T09:50:13.920Z,2.90
2018-09-17T09:52:42.263Z,3.00
2018-09-17T09:55:10.392Z,3.10
2018-09-17T09:57:38.570Z,2.73
2018-09-17T10:00:12.892Z,3.20
2018-09-17T10:02:46.359Z,3.20
2018-09-17T10:05:14.583Z,3.10
2018-09-17T10:07:42.774Z,3.70
2018-09-17T10:10:16.138Z,2.93
2018-09-17T10:12:49.659Z,2.90
2018-09-17T10:16:23.947Z,3.00
2018-09-17T10:18:57.463Z,3.10
2018-09-17T10:21:25.683Z,2.80
2018-09-17T10:23:53.855Z,3.13
2018-09-17T10:26:22.029Z,2.70
2018-09-17T10:28:50.182Z,2.20
2018-09-17T10:31:18.373Z,2.60
2018-09-17T10:33:46.650Z,2.23
2018-09-17T10:36:14.815Z,2.47
2018-09-17T10:38:42.974Z,2.97
2018-09-17T10:41:11.171Z,2.77
2018-09-17T10:43:39.375Z,2.50
2018-09-17T10:46:07.527Z,2.13
2018-09-17T10:48:35.690Z,1.80
2018-09-17T10:51:03.851Z,2.20
2018-09-17T10:53:32.026Z,2.07
2018-09-17T10:56:00.199Z,2.40
2018-09-17T10:58:28.388Z,2.30
2018-09-17T11:00:56.568Z,1.93
2018-09-17T11:03:24.746Z,2.20
2018-09-17T11:05:52.918Z,2.00
2018-09-17T11:08:21.135Z,1.87
2018-09-17T11:10:49.343Z,2.10
2018-09-17T11:13:17.519Z,1.97
2018-09-17T11:15:47.366Z,1.90
2018-09-17T11:18:16.030Z,1.90
2018-09-17T11:20:44.931Z,2.20
2018-09-17T11:23:13.107Z,2.47
2018-09-17T11:25:41.314Z,2.00
2018-09-17T11:28:09.534Z,2.10
2018-09-17T11:30:37.709Z,1.60
2018-09-17T11:33:05.991Z,1.97
2018-09-17T11:35:34.186Z,2.00
2018-09-17T11:38:02.385Z,2.10
2018-09-17T11:40:30.544Z,1.90
2018-09-17T11:42:58.727Z,2.23
2018-09-17T11:45:26.944Z,1.90
2018-09-17T11:47:55.103Z,2.07
2018-09-17T11:50:23.271Z,1.73
2018-09-17T11:52:51.535Z,1.90
2018-09-17T11:55:19.766Z,1.70
2018-09-17T11:57:47.935Z,2.10
2018-09-17T12:00:20.284Z,1.83
2018-09-17T12:02:53.867Z,1.97
2018-09-17T12:05:27.372Z,1.63
2018-09-17T12:07:55.531Z,2.13
2018-09-17T12:10:23.679Z,1.97
2018-09-17T12:12:51.845Z,1.80
2018-09-17T12:15:20.022Z,1.93
2018-09-17T12:17:48.215Z,1.70
2018-09-17T12:20:16.366Z,1.83
2018-09-17T12:22:44.551Z,2.00
2018-09-17T12:25:12.712Z,2.10
2018-09-17T12:27:40.915Z,2.10
2018-09-17T12:30:09.076Z,2.17
2018-09-17T12:32:37.226Z,2.30
2018-09-17T12:35:05.407Z,1.80
2018-09-17T12:37:33.618Z,1.80
2018-09-17T12:40:01.775Z,1.90
2018-09-17T12:42:29.960Z,2.00
2018-09-17T12:44:58.123Z,1.93
2018-09-17T12:47:26.290Z,1.70
2018-09-17T12:49:54.451Z,1.93
2018-09-17T12:52:22.620Z,1.77
2018-09-17T12:54:50.784Z,1.97
2018-09-17T12:57:19.014Z,1.57
2018-09-17T12:59:47.115Z,2.00
2018-09-17T13:02:15.663Z,1.97
2018-09-17T13:04:43.823Z,2.60
2018-09-17T13:07:11.982Z,2.20
2018-09-17T13:09:40.152Z,2.00
2018-09-17T13:12:08.336Z,1.77
2018-09-17T13:14:36.507Z,2.00
2018-09-17T13:17:04.715Z,2.00
2018-09-17T13:19:32.893Z,1.90
2018-09-17T13:22:01.067Z,2.23
2018-09-17T13:24:29.239Z,1.83
2018-09-17T13:26:57.428Z,2.00
2018-09-17T13:29:25.674Z,1.90
2018-09-17T13:31:53.908Z,2.37
2018-09-17T13:34:22.003Z,4.80
2018-09-17T13:36:50.236Z,2.67
2018-09-17T13:39:18.409Z,2.33
2018-09-17T13:41:46.575Z,2.10
2018-09-17T13:44:14.840Z,2.20
2018-09-17T13:46:42.950Z,1.70
2018-09-17T13:49:11.103Z,1.97
2018-09-17T13:51:39.306Z,1.73
2018-09-17T13:54:07.480Z,1.90
2018-09-17T13:56:35.653Z,2.00
2018-09-17T13:59:03.912Z,1.60
2018-09-17T14:01:32.081Z,2.20
2018-09-17T14:04:00.277Z,2.10
2018-09-17T14:06:28.503Z,2.33
2018-09-17T14:08:56.659Z,1.77
2018-09-17T14:11:24.827Z,1.97
2018-09-17T14:13:53.035Z,2.07
2018-09-17T14:16:26.577Z,1.73
2018-09-17T14:18:54.749Z,1.97
2018-09-17T14:21:22.911Z,2.20
2018-09-17T14:23:51.077Z,1.77
2018-09-17T14:26:19.379Z,1.77
2018-09-17T14:28:47.418Z,2.10
2018-09-17T14:31:15.631Z,1.90
2018-09-17T14:33:43.810Z,2.20
2018-09-17T14:36:12.004Z,1.90
2018-09-17T14:38:40.167Z,2.03
2018-09-17T14:41:08.303Z,2.00
2018-09-17T14:43:36.546Z,2.07
2018-09-17T14:46:04.670Z,1.93
2018-09-17T14:48:32.819Z,1.90
2018-09-17T14:51:01.015Z,2.00
2018-09-17T14:53:29.402Z,2.07
2018-09-17T14:55:57.518Z,2.00
2018-09-17T14:58:25.894Z,2.50
2018-09-17T15:00:54.075Z,2.47
2018-09-17T15:03:22.337Z,2.27
2018-09-17T15:05:50.575Z,1.70
2018-09-17T15:08:18.905Z,1.87
2018-09-17T15:10:47.045Z,1.90
2018-09-17T15:13:15.182Z,2.07
2018-09-17T15:15:50.455Z,2.93
2018-09-17T15:18:18.885Z,2.30
2018-09-17T15:20:47.130Z,2.20
2018-09-17T15:23:15.354Z,2.37
2018-09-17T15:25:43.559Z,2.00
2018-09-17T15:28:11.880Z,2.13
2018-09-17T15:30:39.997Z,2.40
2018-09-17T15:33:08.272Z,1.90
2018-09-17T15:35:36.448Z,1.80
2018-09-17T15:38:04.750Z,2.20
2018-09-17T15:40:32.946Z,2.30
2018-09-17T15:43:01.185Z,2.47
2018-09-17T15:45:29.353Z,2.57
2018-09-17T15:47:58.147Z,2.43
2018-09-17T15:50:26.398Z,2.20
2018-09-17T15:52:54.609Z,2.50
2018-09-17T15:55:22.779Z,2.20
2018-09-17T15:57:50.990Z,2.50
2018-09-17T16:00:19.177Z,2.50
2018-09-17T16:02:47.432Z,3.10
2018-09-17T16:05:15.598Z,4.40
2018-09-17T16:07:43.835Z,4.50
2018-09-17T16:10:12.007Z,4.07
2018-09-17T16:12:40.171Z,3.20
2018-09-17T16:15:08.342Z,2.70
2018-09-17T16:17:36.502Z,2.33
2018-09-17T16:20:04.822Z,8.53
2018-09-17T16:22:32.905Z,5.20
2018-09-17T16:25:01.065Z,8.13
2018-09-17T16:27:29.226Z,12.57
2018-09-17T16:29:57.418Z,11.43
2018-09-17T16:32:25.598Z,12.83
2018-09-17T16:34:53.774Z,15.20
2018-09-17T16:37:21.960Z,14.97
2018-09-17T16:39:50.140Z,14.23
2018-09-17T16:42:18.320Z,14.43
2018-09-17T16:44:46.515Z,15.43
2018-09-17T16:47:14.708Z,11.77
2018-09-17T16:49:42.854Z,10.53
2018-09-17T16:52:11.019Z,8.13
2018-09-17T16:54:39.186Z,6.47
2018-09-17T16:57:07.359Z,4.13
2018-09-17T16:59:35.546Z,3.73
2018-09-17T17:02:03.716Z,3.67
2018-09-17T17:04:31.879Z,4.23
2018-09-17T17:07:00.047Z,4.37
2018-09-17T17:09:28.215Z,3.83
2018-09-17T17:11:56.474Z,3.03
2018-09-17T17:14:24.567Z,4.53
2018-09-17T17:16:52.736Z,6.07
2018-09-17T17:19:20.911Z,4.17
2018-09-17T17:21:49.086Z,3.67
2018-09-17T17:24:17.353Z,6.13
2018-09-17T17:26:45.467Z,8.10
2018-09-17T17:29:13.686Z,5.83
2018-09-17T17:31:41.826Z,4.40
2018-09-17T17:34:10.111Z,4.10
2018-09-17T17:36:38.222Z,3.10
2018-09-17T17:39:08.485Z,3.20
2018-09-17T17:41:36.660Z,3.40
2018-09-17T17:44:04.834Z,3.50
2018-09-17T17:46:33.399Z,3.47
2018-09-17T17:49:01.524Z,3.47
2018-09-17T17:51:29.674Z,3.20
2018-09-17T17:53:57.875Z,2.70
2018-09-17T17:56:26.140Z,2.83
2018-09-17T17:58:54.306Z,3.40
2018-09-17T18:01:22.544Z,3.17
2018-09-17T18:03:50.734Z,3.07
2018-09-17T18:06:18.856Z,3.33
2018-09-17T18:08:47.019Z,2.80
2018-09-17T18:11:15.194Z,3.33
2018-09-17T18:13:43.367Z,3.23
2018-09-17T18:16:11.545Z,3.90
2018-09-17T18:18:39.819Z,3.70
2018-09-17T18:21:08.310Z,3.70
2018-09-17T18:23:36.858Z,3.90
2018-09-17T18:26:05.140Z,4.00
2018-09-17T18:28:33.315Z,3.37
2018-09-17T18:31:01.531Z,3.53
2018-09-17T18:33:29.700Z,3.67
2018-09-17T18:35:57.880Z,3.20
2018-09-17T18:38:26.098Z,3.60
2018-09-17T18:40:54.280Z,3.80
2018-09-17T18:43:22.452Z,3.97
2018-09-17T18:45:50.667Z,4.03
2018-09-17T18:48:18.939Z,3.80
2018-09-17T18:50:47.027Z,4.97
2018-09-17T18:53:15.180Z,4.07
2018-09-17T18:55:43.381Z,3.93
2018-09-17T18:58:11.554Z,3.77
2018-09-17T19:00:39.718Z,3.80
2018-09-17T19:03:07.921Z,3.63
2018-09-17T19:05:36.063Z,4.03
2018-09-17T19:08:04.239Z,3.50
2018-09-17T19:10:32.411Z,3.30
2018-09-17T19:13:00.578Z,3.13
2018-09-17T19:15:34.114Z,3.07
2018-09-17T19:18:07.670Z,3.10
2018-09-17T19:20:35.994Z,3.37
2018-09-17T19:23:09.503Z,3.30
2018-09-17T19:25:37.682Z,3.43
2018-09-17T19:28:11.281Z,2.63
2018-09-17T19:30:39.427Z,3.30
2018-09-17T19:33:07.601Z,2.97
2018-09-17T19:35:35.800Z,3.10
2018-09-17T19:38:09.333Z,3.03
2018-09-17T19:40:37.480Z,3.20
2018-09-17T19:43:05.661Z,3.00
2018-09-17T19:45:39.217Z,3.17
2018-09-17T19:48:07.473Z,3.03
2018-09-17T19:50:40.999Z,3.60
2018-09-17T19:53:09.198Z,3.80
2018-09-17T19:55:37.365Z,4.00
2018-09-17T19:58:10.966Z,3.53
2018-09-17T20:00:39.330Z,3.37
2018-09-17T20:03:07.354Z,3.80
2018-09-17T20:05:40.943Z,3.83
2018-09-17T20:08:09.127Z,3.47
2018-09-17T20:10:37.285Z,3.73
2018-09-17T20:13:05.476Z,3.50
2018-09-17T20:15:33.638Z,3.77
2018-09-17T20:18:01.796Z,4.20
2018-09-17T20:20:29.977Z,3.67
2018-09-17T20:22:58.223Z,3.60
2018-09-17T20:25:26.347Z,3.70
2018-09-17T20:27:54.506Z,4.03
2018-09-17T20:30:22.690Z,4.13
2018-09-17T20:32:51.150Z,3.40
2018-09-17T20:35:19.506Z,3.50
2018-09-17T20:37:47.692Z,3.40
2018-09-17T20:40:15.885Z,3.80
2018-09-17T20:42:44.046Z,3.43
2018-09-17T20:45:12.264Z,3.10
2018-09-17T20:47:40.590Z,3.33
2018-09-17T20:50:08.780Z,3.30
2018-09-17T20:52:36.944Z,3.23
2018-09-17T20:55:05.166Z,2.90
2018-09-17T20:57:33.326Z,2.87
2018-09-17T21:00:01.560Z,3.13
2018-09-17T21:02:29.769Z,3.20
2018-09-17T21:04:57.923Z,3.00
2018-09-17T21:07:26.180Z,2.90
2018-09-17T21:09:54.280Z,3.33
2018-09-17T21:12:22.471Z,3.13
2018-09-17T21:14:50.637Z,6.33
2018-09-17T21:17:18.792Z,4.27
2018-09-17T21:19:46.968Z,3.73
2018-09-17T21:22:15.153Z,3.67
2018-09-17T21:24:43.439Z,3.30
2018-09-17T21:27:11.550Z,3.37
2018-09-17T21:29:39.726Z,3.27
2018-09-17T21:32:07.894Z,3.40
2018-09-17T21:34:36.079Z,3.33
2018-09-17T21:37:04.327Z,3.23
2018-09-17T21:39:32.465Z,3.43
2018-09-17T21:42:00.623Z,3.43
2018-09-17T21:44:28.826Z,3.60
2018-09-17T21:46:56.994Z,3.83
2018-09-17T21:49:25.163Z,3.63
2018-09-17T21:54:34.299Z,3.27
2018-09-17T21:57:02.468Z,2.77
2018-09-17T21:59:30.643Z,2.80
2018-09-17T22:01:58.803Z,3.43
2018-09-17T22:04:27.020Z,3.87
2018-09-17T22:06:55.160Z,4.10
2018-09-17T22:09:23.321Z,3.73
2018-09-17T22:11:51.495Z,3.27
2018-09-17T22:14:19.666Z,3.77
2018-09-17T22:16:47.823Z,3.33
2018-09-17T22:19:15.994Z,2.67
2018-09-17T22:21:44.203Z,2.90
2018-09-17T22:24:12.364Z,3.23
2018-09-17T22:26:40.539Z,3.37
2018-09-17T22:29:08.835Z,3.37
2018-09-17T22:31:36.867Z,3.43
2018-09-17T22:34:05.100Z,3.63
2018-09-17T22:36:33.231Z,3.30
2018-09-17T22:39:01.398Z,3.30
2018-09-17T22:41:29.593Z,3.23
2018-09-17T22:43:57.755Z,4.00
2018-09-17T22:46:25.932Z,3.10
2018-09-17T22:48:54.100Z,3.30
2018-09-17T22:51:22.280Z,2.97
2018-09-17T22:53:50.461Z,2.97
2018-09-17T22:56:18.651Z,3.00
2018-09-17T22:58:47.002Z,3.50
2018-09-17T23:01:15.172Z,3.20
2018-09-17T23:03:43.322Z,3.50
2018-09-17T23:06:11.506Z,3.30
2018-09-17T23:08:39.689Z,3.97
2018-09-17T23:11:08.043Z,3.87
2018-09-17T23:13:36.283Z,3.57
2018-09-17T23:16:04.460Z,3.20
2018-09-17T23:18:32.618Z,4.30
2018-09-17T23:21:00.798Z,4.37
2018-09-17T23:23:29.000Z,5.00
2018-09-17T23:25:57.164Z,5.17
2018-09-17T23:28:25.345Z,5.47
2018-09-17T23:30:53.518Z,4.93
2018-09-17T23:33:21.710Z,6.83
2018-09-17T23:35:49.891Z,6.87
2018-09-17T23:38:18.083Z,8.37
2018-09-17T23:40:46.254Z,9.17
2018-09-17T23:43:15.263Z,8.23
2018-09-17T23:45:43.443Z,8.10
2018-09-17T23:48:11.620Z,7.40
2018-09-17T23:50:39.791Z,5.77
2018-09-17T23:53:07.967Z,4.93
2018-09-17T23:55:36.166Z,5.83
2018-09-17T23:58:04.358Z,4.97
